Time;durP1;ratioP1;P1;durP2;ratioP2;P2;SDS_P1;SDS_P2;PMS_P1;PMS_P2;Temp;Humidity;BMP_temperature;BMP_pressure;BME280_temperature;BME280_humidity;BME280_pressure;Samples;Min_cycle;Max_cycle;Signal;HPM_P1;HPM_P2
2021/06/29 00:00:40;;;;;;;61.20;52.87;;;20.40;99.90;;;;;;5034752;28;20247;-82
2021/06/29 00:03:07;;;;;;;57.27;50.77;;;20.50;99.90;;;;;;5034551;28;20306;-76
2021/06/29 00:05:36;;;;;;;57.70;51.40;;;20.40;99.90;;;;;;5034250;28;20170;-81
2021/06/29 00:08:02;;;;;;;58.80;50.77;;;20.50;99.90;;;;;;5033891;28;20290;-83
2021/06/29 00:10:30;;;;;;;58.73;51.03;;;20.50;99.90;;;;;;5033532;28;20192;-83
2021/06/29 00:12:56;;;;;;;55.10;48.83;;;20.60;99.90;;;;;;5034893;28;20170;-79
2021/06/29 00:15:23;;;;;;;53.13;47.47;;;20.70;99.90;;;;;;5035366;28;20168;-77
2021/06/29 00:17:50;;;;;;;52.60;46.87;;;20.70;99.90;;;;;;5035519;28;20186;-81
2021/06/29 00:20:17;;;;;;;55.83;49.73;;;20.70;99.90;;;;;;5036356;28;20261;-75
2021/06/29 00:22:43;;;;;;;56.37;50.17;;;20.80;99.90;;;;;;5036814;28;20181;-82
2021/06/29 00:25:11;;;;;;;57.17;50.87;;;20.80;99.90;;;;;;5035160;28;20191;-77
2021/06/29 00:27:38;;;;;;;58.97;49.73;;;20.70;99.90;;;;;;5033703;28;20209;-77
2021/06/29 00:30:05;;;;;;;57.30;50.87;;;20.60;99.90;;;;;;5033719;28;20170;-76
2021/06/29 00:32:31;;;;;;;64.37;53.53;;;20.60;99.90;;;;;;5033391;28;20708;-82
2021/06/29 00:34:58;;;;;;;63.70;53.43;;;20.60;99.90;;;;;;5032546;28;20173;-80
2021/06/29 00:37:24;;;;;;;63.53;54.40;;;20.70;99.90;;;;;;5033972;28;20193;-82
2021/06/29 00:39:51;;;;;;;66.23;53.73;;;20.30;99.90;;;;;;5033685;28;20166;-75
2021/06/29 00:42:17;;;;;;;62.37;53.97;;;20.20;99.90;;;;;;5035021;28;20533;-80
2021/06/29 00:44:46;;;;;;;65.23;54.47;;;20.10;99.90;;;;;;5036383;28;20173;-79
2021/06/29 00:47:11;;;;;;;59.77;52.50;;;20.10;99.90;;;;;;5033733;28;20209;-76
2021/06/29 00:49:37;;;;;;;64.87;54.47;;;20.20;99.90;;;;;;5033762;28;20179;-83
2021/06/29 00:52:05;;;;;;;62.13;54.23;;;20.20;99.90;;;;;;5034469;28;20174;-79
2021/06/29 00:54:34;;;;;;;63.30;53.60;;;20.10;99.90;;;;;;5033083;28;20240;-82
2021/06/29 00:57:00;;;;;;;61.30;53.33;;;20.30;99.90;;;;;;5033783;28;20166;-81
2021/06/29 00:59:26;;;;;;;60.13;51.63;;;20.30;99.90;;;;;;5033984;28;20249;-77
2021/06/29 01:01:51;;;;;;;58.80;52.37;;;20.30;99.90;;;;;;5031995;28;20590;-81
2021/06/29 01:04:17;;;;;;;64.03;53.20;;;20.20;99.90;;;;;;5035268;28;20208;-75
2021/06/29 01:06:44;;;;;;;63.40;53.80;;;20.30;99.90;;;;;;5032851;28;20166;-79
2021/06/29 01:09:09;;;;;;;65.70;52.80;;;20.50;99.90;;;;;;5032570;28;20180;-81
2021/06/29 01:11:35;;;;;;;67.80;56.37;;;20.60;99.90;;;;;;5033084;28;20166;-82
2021/06/29 01:14:15;;;;;;;71.37;56.47;;;20.60;99.90;;;;;;5033197;28;20177;-78
2021/06/29 01:16:42;;;;;;;71.90;57.20;;;20.70;99.90;;;;;;5032997;28;20258;-82
2021/06/29 01:19:08;;;;;;;70.63;57.40;;;20.80;99.90;;;;;;5033486;28;20600;-81
2021/06/29 01:21:42;;;;;;;73.47;60.07;;;20.90;99.90;;;;;;5031367;28;20729;-82
2021/06/29 01:24:11;;;;;;;72.70;59.57;;;20.80;99.90;;;;;;5036341;28;20276;-81
2021/06/29 01:26:42;;;;;;;75.23;61.67;;;20.90;99.90;;;;;;5037574;28;20571;-83
2021/06/29 01:29:08;;;;;;;84.10;65.03;;;20.80;99.90;;;;;;5037464;28;20178;-75
2021/06/29 01:31:35;;;;;;;87.60;69.33;;;20.90;99.90;;;;;;5037412;28;20165;-76
2021/06/29 01:34:02;;;;;;;100.23;80.60;;;20.70;99.90;;;;;;5036505;28;20189;-82
2021/06/29 01:36:34;;;;;;;122.07;90.07;;;20.40;99.90;;;;;;5036797;28;20169;-80
2021/06/29 01:39:00;;;;;;;120.23;91.87;;;20.20;99.90;;;;;;5037243;28;20250;-80
2021/06/29 01:41:27;;;;;;;125.70;92.87;;;20.20;99.90;;;;;;5037218;28;20170;-81
2021/06/29 01:43:56;;;;;;;116.10;84.33;;;20.10;99.90;;;;;;5036679;28;20175;-77
2021/06/29 01:46:24;;;;;;;98.57;73.20;;;20.10;99.90;;;;;;5036492;28;20278;-79
2021/06/29 01:48:52;;;;;;;86.53;65.70;;;20.00;99.90;;;;;;5036609;28;20733;-81
2021/06/29 01:51:19;;;;;;;62.77;51.17;;;20.00;99.90;;;;;;5035968;28;20190;-75
2021/06/29 01:53:46;;;;;;;51.87;40.60;;;19.90;99.90;;;;;;5036335;28;20171;-79
2021/06/29 01:56:14;;;;;;;38.07;32.83;;;19.90;99.90;;;;;;5036095;28;20162;-81
2021/06/29 01:58:58;;;;;;;24.27;21.67;;;19.80;99.90;;;;;;5036312;28;20630;-82
2021/06/29 02:01:24;;;;;;;15.77;12.47;;;19.80;99.90;;;;;;5037462;28;20166;-83
2021/06/29 02:03:50;;;;;;;12.47;10.47;;;19.60;99.90;;;;;;5036357;28;20234;-77
2021/06/29 02:06:16;;;;;;;13.77;9.83;;;19.70;99.90;;;;;;5036215;28;20181;-77
2021/06/29 02:08:43;;;;;;;12.57;9.90;;;19.60;99.90;;;;;;5036055;28;20212;-82
2021/06/29 02:11:09;;;;;;;10.10;8.10;;;19.70;99.90;;;;;;5036089;28;20174;-81
2021/06/29 02:13:35;;;;;;;9.17;7.77;;;19.70;99.60;;;;;;5036545;28;20181;-79
2021/06/29 02:16:01;;;;;;;8.63;7.63;;;19.70;99.60;;;;;;5043005;28;20159;-76
2021/06/29 02:18:30;;;;;;;9.87;7.60;;;19.70;99.90;;;;;;5054648;28;20749;-74
2021/06/29 02:20:56;;;;;;;9.57;7.23;;;19.70;99.90;;;;;;5053389;28;20196;-82
2021/06/29 02:23:22;;;;;;;8.87;6.37;;;19.80;99.90;;;;;;5037673;28;20199;-83
2021/06/29 02:25:48;;;;;;;8.70;6.40;;;19.90;99.90;;;;;;5036517;28;20237;-82
2021/06/29 02:28:14;;;;;;;8.07;7.17;;;19.90;99.10;;;;;;5036792;28;20212;-81
2021/06/29 02:30:43;;;;;;;10.23;7.30;;;20.00;98.60;;;;;;5036320;28;20176;-81
2021/06/29 02:33:12;;;;;;;10.00;6.43;;;19.90;98.60;;;;;;5034562;28;20191;-83
2021/06/29 02:35:43;;;;;;;8.07;6.07;;;20.00;98.20;;;;;;5035612;28;20520;-82
2021/06/29 02:38:09;;;;;;;7.57;6.30;;;20.00;97.50;;;;;;5035145;28;20201;-82
2021/06/29 02:40:35;;;;;;;7.47;6.37;;;20.00;97.30;;;;;;5035443;28;20207;-82
2021/06/29 02:43:01;;;;;;;7.87;6.47;;;20.00;97.10;;;;;;5035349;28;20199;-81
2021/06/29 02:45:27;;;;;;;8.53;6.17;;;19.90;96.80;;;;;;5035170;28;20552;-83
2021/06/29 02:47:56;;;;;;;8.43;6.73;;;20.00;97.00;;;;;;5034939;28;20748;-83
2021/06/29 02:50:22;;;;;;;9.13;6.20;;;19.90;96.90;;;;;;5043490;28;20171;-80
2021/06/29 02:52:48;;;;;;;8.80;6.00;;;19.80;97.80;;;;;;5052626;28;20172;-74
2021/06/29 02:55:15;;;;;;;7.03;4.77;;;19.70;98.10;;;;;;5052332;28;20171;-79
2021/06/29 02:57:41;;;;;;;6.77;5.47;;;19.80;97.20;;;;;;5043418;28;20172;-76
2021/06/29 03:00:09;;;;;;;7.97;5.30;;;19.80;97.00;;;;;;5036712;28;20561;-75
2021/06/29 03:02:35;;;;;;;6.33;4.87;;;19.80;97.60;;;;;;5036121;28;20628;-82
2021/06/29 03:05:07;;;;;;;7.10;4.60;;;19.80;97.70;;;;;;5035373;28;20186;-81
2021/06/29 03:07:34;;;;;;;6.63;4.20;;;19.70;97.00;;;;;;5033852;28;20584;-75
2021/06/29 03:10:03;;;;;;;5.80;3.90;;;19.60;97.40;;;;;;5035606;28;20155;-77
2021/06/29 03:12:28;;;;;;;6.47;3.30;;;19.70;97.00;;;;;;5034285;28;20179;-79
2021/06/29 03:14:57;;;;;;;4.23;3.27;;;19.50;97.50;;;;;;5035300;28;20166;-81
2021/06/29 03:17:23;;;;;;;4.83;4.00;;;19.60;97.30;;;;;;5034979;28;20209;-82
2021/06/29 03:19:48;;;;;;;4.90;3.43;;;19.60;97.50;;;;;;5034681;28;20196;-82
2021/06/29 03:22:15;;;;;;;5.10;3.40;;;19.60;96.90;;;;;;5035068;28;20615;-81
2021/06/29 03:24:41;;;;;;;5.90;3.43;;;19.70;97.20;;;;;;5035322;28;20545;-76
2021/06/29 03:27:08;;;;;;;5.00;3.47;;;19.80;96.90;;;;;;5035596;28;20199;-76
2021/06/29 03:29:34;;;;;;;4.20;3.00;;;19.80;96.90;;;;;;5035847;28;20176;-76
2021/06/29 03:32:00;;;;;;;4.63;3.07;;;19.90;97.00;;;;;;5035463;28;20214;-82
2021/06/29 03:34:26;;;;;;;3.90;2.97;;;19.70;96.90;;;;;;5035700;28;20166;-76
2021/06/29 03:36:52;;;;;;;4.27;2.67;;;19.60;97.10;;;;;;5040856;28;20169;-76
2021/06/29 03:39:18;;;;;;;4.47;2.30;;;19.80;96.50;;;;;;5053956;28;20176;-75
2021/06/29 03:41:45;;;;;;;4.30;2.50;;;19.80;96.00;;;;;;5054203;28;20247;-76
2021/06/29 03:44:11;;;;;;;4.33;2.17;;;19.90;95.60;;;;;;5045138;28;20250;-75
2021/06/29 03:46:36;;;;;;;4.53;2.60;;;20.00;94.20;;;;;;5050309;28;20201;-78
2021/06/29 03:49:02;;;;;;;3.13;2.03;;;19.90;94.90;;;;;;5054173;28;20293;-75
2021/06/29 03:51:31;;;;;;;4.37;2.50;;;19.80;95.60;;;;;;5052965;28;20179;-77
2021/06/29 03:54:03;;;;;;;4.27;2.43;;;19.80;96.10;;;;;;5051825;28;20172;-76
2021/06/29 03:56:31;;;;;;;4.77;1.97;;;19.70;96.00;;;;;;5053060;28;20218;-74
2021/06/29 03:59:01;;;;;;;3.90;1.90;;;19.50;96.50;;;;;;5050811;28;20147;-79
2021/06/29 04:01:29;;;;;;;4.10;2.20;;;19.50;96.80;;;;;;5046995;28;20182;-80
2021/06/29 04:04:10;;;;;;;2.50;1.97;;;19.50;97.10;;;;;;5041961;28;20176;-78
2021/06/29 04:06:37;;;;;;;3.83;1.97;;;19.50;96.80;;;;;;5041875;28;20183;-81
2021/06/29 04:09:08;;;;;;;4.47;2.17;;;19.50;97.40;;;;;;5041806;28;20211;-76
2021/06/29 04:11:35;;;;;;;5.70;3.47;;;19.30;97.60;;;;;;5039356;28;20204;-76
2021/06/29 04:14:01;;;;;;;6.50;4.97;;;19.20;98.30;;;;;;5049891;28;20170;-74
2021/06/29 04:16:29;;;;;;;10.20;6.77;;;19.20;98.40;;;;;;5048124;28;20211;-75
2021/06/29 04:18:55;;;;;;;12.80;9.07;;;19.00;98.30;;;;;;5049652;28;20172;-78
2021/06/29 04:21:20;;;;;;;13.57;10.67;;;19.00;98.00;;;;;;5048607;28;20180;-74
2021/06/29 04:23:46;;;;;;;15.27;12.60;;;18.80;98.10;;;;;;5048097;28;20194;-76
2021/06/29 04:26:13;;;;;;;14.60;12.40;;;18.80;98.10;;;;;;5046263;28;20626;-74
2021/06/29 04:32:07;;;;;;;12.77;10.20;;;18.80;98.20;;;;;;5034083;28;20180;-77
2021/06/29 04:34:51;;;;;;;10.37;8.20;;;18.80;98.00;;;;;;5033514;28;20162;-81
2021/06/29 04:37:17;;;;;;;9.27;6.20;;;18.70;98.20;;;;;;5033487;28;20161;-81
2021/06/29 04:39:44;;;;;;;7.73;5.30;;;18.80;98.10;;;;;;5033595;28;20193;-75
2021/06/29 04:42:10;;;;;;;6.93;4.03;;;18.60;97.50;;;;;;5032062;28;20269;-75
2021/06/29 04:44:38;;;;;;;6.83;3.37;;;18.60;97.30;;;;;;5032852;28;20226;-80
2021/06/29 04:47:06;;;;;;;8.63;4.27;;;18.50;97.70;;;;;;5033205;28;20690;-74
2021/06/29 04:49:32;;;;;;;8.53;3.83;;;18.50;97.90;;;;;;5033052;28;20180;-77
2021/06/29 04:51:58;;;;;;;6.90;4.30;;;18.50;98.40;;;;;;5032562;28;20169;-78
2021/06/29 04:54:23;;;;;;;7.67;3.30;;;18.50;98.30;;;;;;5033134;28;20180;-79
2021/06/29 04:56:49;;;;;;;8.40;3.37;;;18.60;98.40;;;;;;5034248;28;20169;-81
2021/06/29 04:59:16;;;;;;;5.03;2.93;;;18.50;98.20;;;;;;5037102;28;20173;-74
2021/06/29 05:01:42;;;;;;;4.30;3.07;;;18.50;98.40;;;;;;5037032;28;20249;-77
2021/06/29 05:04:08;;;;;;;8.57;2.80;;;18.40;98.50;;;;;;5035765;28;20634;-81
2021/06/29 05:06:34;;;;;;;8.90;2.77;;;18.40;98.50;;;;;;5036545;28;20165;-81
2021/06/29 05:09:00;;;;;;;5.40;2.70;;;18.50;97.90;;;;;;5037068;28;20213;-76
2021/06/29 05:11:27;;;;;;;5.30;2.57;;;18.50;98.10;;;;;;5036964;28;20191;-74
2021/06/29 05:13:53;;;;;;;8.27;3.30;;;18.40;98.40;;;;;;5037500;28;20254;-82
2021/06/29 05:16:19;;;;;;;4.23;2.70;;;18.40;98.60;;;;;;5037300;28;20205;-79
2021/06/29 05:18:44;;;;;;;5.47;2.80;;;18.50;98.60;;;;;;5037252;28;20183;-82
2021/06/29 05:21:10;;;;;;;4.87;3.13;;;18.50;98.20;;;;;;5036549;28;20629;-81
2021/06/29 05:23:36;;;;;;;5.03;3.20;;;18.50;98.20;;;;;;5037045;28;20246;-82
2021/06/29 05:26:02;;;;;;;6.43;3.40;;;18.40;98.50;;;;;;5036929;28;20165;-78
2021/06/29 05:28:27;;;;;;;9.37;4.30;;;18.40;98.50;;;;;;5035281;28;20228;-80
2021/06/29 05:30:55;;;;;;;6.33;4.17;;;18.40;98.70;;;;;;5036454;28;20193;-83
2021/06/29 05:33:21;;;;;;;6.23;3.90;;;18.60;98.50;;;;;;5036302;28;20633;-82
2021/06/29 05:35:47;;;;;;;5.80;3.40;;;18.60;98.30;;;;;;5036455;28;20177;-75
2021/06/29 05:38:13;;;;;;;6.37;3.60;;;18.90;96.90;;;;;;5036293;28;20174;-81
2021/06/29 05:40:39;;;;;;;6.60;3.57;;;18.80;96.10;;;;;;5036232;28;20154;-76
2021/06/29 05:43:04;;;;;;;7.70;3.83;;;18.70;96.40;;;;;;5036650;28;20634;-78
2021/06/29 05:45:30;;;;;;;9.33;3.80;;;18.80;96.60;;;;;;5036028;28;20181;-83
2021/06/29 05:47:57;;;;;;;6.57;3.43;;;18.80;96.70;;;;;;5036432;28;20221;-75
2021/06/29 05:50:23;;;;;;;5.13;3.63;;;19.00;96.50;;;;;;5036251;28;20158;-74
2021/06/29 05:52:49;;;;;;;7.07;4.30;;;19.10;95.40;;;;;;5036072;28;20229;-77
2021/06/29 05:55:15;;;;;;;8.53;3.80;;;18.90;95.00;;;;;;5036234;28;20204;-79
2021/06/29 05:57:42;;;;;;;8.00;4.03;;;18.90;95.30;;;;;;5036257;28;20281;-80
2021/06/29 06:00:10;;;;;;;8.07;4.37;;;18.90;95.60;;;;;;5036424;28;20178;-78
2021/06/29 06:02:36;;;;;;;8.43;3.43;;;18.90;95.10;;;;;;5038705;28;20181;-83
2021/06/29 06:05:01;;;;;;;9.53;4.90;;;19.10;94.60;;;;;;5042577;28;20170;-77
2021/06/29 06:07:27;;;;;;;8.63;4.47;;;19.10;93.90;;;;;;5038696;28;20653;-76
2021/06/29 06:09:53;;;;;;;9.00;5.77;;;19.10;94.80;;;;;;5038489;28;20177;-81
2021/06/29 06:12:18;;;;;;;8.87;5.03;;;19.10;95.00;;;;;;5038331;28;20269;-82
2021/06/29 06:14:44;;;;;;;4.70;4.17;;;19.10;94.70;;;;;;5039343;28;20526;-83
2021/06/29 06:17:10;;;;;;;7.13;4.57;;;19.10;95.00;;;;;;5039888;28;20549;-85
2021/06/29 06:19:36;;;;;;;6.97;4.87;;;19.20;95.30;;;;;;5037652;28;20632;-83
2021/06/29 06:22:01;;;;;;;11.80;4.47;;;19.30;94.40;;;;;;5037510;28;20310;-80
2021/06/29 06:24:27;;;;;;;5.80;4.50;;;19.30;94.50;;;;;;5037550;28;20201;-82
2021/06/29 06:26:52;;;;;;;6.83;4.47;;;19.30;94.90;;;;;;5037336;28;20180;-83
2021/06/29 06:29:18;;;;;;;9.57;5.40;;;19.30;95.10;;;;;;5037246;28;20184;-82
2021/06/29 06:31:44;;;;;;;8.30;4.70;;;19.30;94.90;;;;;;5038895;28;20634;-79
2021/06/29 06:34:09;;;;;;;7.03;4.77;;;19.20;95.20;;;;;;5053013;28;20166;-76
2021/06/29 06:36:35;;;;;;;9.03;4.77;;;19.40;95.60;;;;;;5056932;28;20180;-81
2021/06/29 06:39:01;;;;;;;6.50;4.87;;;19.40;94.90;;;;;;5043007;28;20182;-82
2021/06/29 06:41:27;;;;;;;6.07;4.40;;;19.40;95.00;;;;;;5040552;28;20641;-84
2021/06/29 06:43:53;;;;;;;7.60;4.87;;;19.40;95.00;;;;;;5060229;28;20174;-81
2021/06/29 06:46:19;;;;;;;5.87;3.97;;;19.60;94.50;;;;;;5046822;28;20195;-80
2021/06/29 06:48:47;;;;;;;7.83;4.57;;;19.60;94.30;;;;;;5072515;28;20217;-76
2021/06/29 06:51:13;;;;;;;7.83;4.73;;;19.60;94.30;;;;;;5058366;28;20723;-82
2021/06/29 06:53:39;;;;;;;7.40;4.93;;;19.70;93.50;;;;;;5056733;28;20179;-82
2021/06/29 06:56:05;;;;;;;8.47;4.83;;;19.80;93.50;;;;;;5058942;28;20169;-80
2021/06/29 06:58:31;;;;;;;8.23;4.97;;;19.90;93.80;;;;;;5056960;28;20174;-76
2021/06/29 07:00:57;;;;;;;9.77;5.30;;;19.90;93.60;;;;;;5056368;28;20178;-75
2021/06/29 07:03:24;;;;;;;12.60;5.20;;;19.80;93.70;;;;;;5055903;28;20173;-79
2021/06/29 07:05:50;;;;;;;10.00;5.17;;;19.80;93.90;;;;;;5060628;28;20238;-77
2021/06/29 07:08:15;;;;;;;9.57;5.30;;;19.90;93.80;;;;;;5062266;28;20190;-76
2021/06/29 07:10:42;;;;;;;6.57;5.03;;;19.80;93.80;;;;;;5062519;28;20174;-76
2021/06/29 07:13:08;;;;;;;8.63;5.43;;;19.70;94.40;;;;;;5068197;28;20166;-74
2021/06/29 07:15:34;;;;;;;15.70;5.67;;;19.80;93.50;;;;;;5070810;28;20173;-75
2021/06/29 07:17:59;;;;;;;9.77;5.40;;;19.80;93.50;;;;;;5075553;28;20648;-76
2021/06/29 07:20:26;;;;;;;10.57;6.17;;;19.80;94.30;;;;;;5066601;28;20222;-78
2021/06/29 07:22:53;;;;;;;9.77;5.30;;;19.70;95.60;;;;;;5060055;28;20252;-79
2021/06/29 07:25:20;;;;;;;9.50;5.80;;;19.70;95.90;;;;;;5071663;28;20170;-80
2021/06/29 07:27:45;;;;;;;9.30;5.80;;;19.60;95.30;;;;;;5056233;28;20197;-77
2021/06/29 07:30:28;;;;;;;12.27;7.03;;;19.80;94.20;;;;;;5054897;28;20157;-78
2021/06/29 07:32:58;;;;;;;11.23;7.10;;;19.70;94.40;;;;;;5060837;28;20167;-81
2021/06/29 07:35:24;;;;;;;8.33;7.07;;;19.60;95.50;;;;;;5074368;28;20164;-79
2021/06/29 07:37:51;;;;;;;10.10;6.83;;;19.60;95.70;;;;;;5074144;28;20515;-78
2021/06/29 07:40:16;;;;;;;10.57;7.17;;;19.50;96.50;;;;;;5075551;28;20171;-77
2021/06/29 07:42:43;;;;;;;13.23;6.63;;;19.30;97.30;;;;;;5074322;28;20171;-80
2021/06/29 07:45:11;;;;;;;7.80;6.47;;;19.10;98.40;;;;;;5074180;28;20225;-79
2021/06/29 07:47:37;;;;;;;11.63;6.70;;;19.10;99.10;;;;;;5091270;28;20212;-76
2021/06/29 07:50:05;;;;;;;11.97;6.60;;;19.20;99.30;;;;;;5080199;28;20608;-76
2021/06/29 07:52:31;;;;;;;11.57;6.00;;;19.20;99.00;;;;;;5065211;28;20628;-77
2021/06/29 07:54:56;;;;;;;11.57;6.63;;;19.30;98.50;;;;;;5057355;28;20175;-75
2021/06/29 07:57:22;;;;;;;9.70;6.43;;;19.50;98.00;;;;;;5057191;28;20573;-79
2021/06/29 07:59:53;;;;;;;9.73;6.00;;;19.60;97.40;;;;;;5059139;28;20224;-77
2021/06/29 08:02:24;;;;;;;10.90;6.50;;;19.80;96.90;;;;;;5057943;28;20213;-80
2021/06/29 08:04:52;;;;;;;12.40;7.10;;;20.10;96.00;;;;;;5058478;28;20254;-77
2021/06/29 08:07:18;;;;;;;11.80;6.70;;;20.30;94.80;;;;;;5057899;28;20250;-79
2021/06/29 08:09:44;;;;;;;12.37;8.53;;;20.30;94.10;;;;;;5059298;28;20170;-76
2021/06/29 08:12:10;;;;;;;9.73;7.23;;;20.40;93.90;;;;;;5059963;28;20167;-77
2021/06/29 08:14:37;;;;;;;11.30;7.67;;;20.60;92.90;;;;;;5060711;28;20174;-80
2021/06/29 08:17:04;;;;;;;9.33;7.07;;;20.60;91.50;;;;;;5055257;28;20202;-77
2021/06/29 08:19:30;;;;;;;9.97;7.23;;;20.60;92.40;;;;;;5054416;28;20274;-78
2021/06/29 08:21:57;;;;;;;10.13;7.47;;;20.60;93.00;;;;;;5055081;28;20622;-81
2021/06/29 08:24:28;;;;;;;11.23;7.60;;;20.50;94.10;;;;;;5063618;28;20255;-78
2021/06/29 08:26:54;;;;;;;11.80;7.73;;;20.60;94.00;;;;;;5074088;28;20177;-82
2021/06/29 08:29:20;;;;;;;10.03;8.00;;;20.50;92.80;;;;;;5074034;28;20169;-77
2021/06/29 08:31:45;;;;;;;11.70;10.07;;;20.50;93.50;;;;;;5075508;28;20166;-83
2021/06/29 08:34:12;;;;;;;10.77;8.60;;;20.30;92.00;;;;;;5083434;28;20253;-77
2021/06/29 08:36:42;;;;;;;11.20;9.40;;;20.30;94.40;;;;;;5087255;28;20173;-79
2021/06/29 08:39:13;;;;;;;11.10;8.77;;;20.20;94.00;;;;;;5086965;28;20180;-78
2021/06/29 08:41:41;;;;;;;15.40;8.80;;;20.20;93.50;;;;;;5085005;28;20233;-75
2021/06/29 08:44:07;;;;;;;11.63;9.37;;;20.20;94.20;;;;;;5086631;28;20180;-75
2021/06/29 08:46:34;;;;;;;12.90;9.50;;;20.20;95.00;;;;;;5085680;28;20162;-75
2021/06/29 08:49:06;;;;;;;10.47;7.83;;;20.20;94.60;;;;;;5095675;28;20217;-78
2021/06/29 08:51:34;;;;;;;12.47;8.40;;;20.30;95.00;;;;;;5091219;28;20286;-76
2021/06/29 08:54:23;;;;;;;12.07;8.43;;;20.40;95.30;;;;;;5080963;28;20165;-76
2021/06/29 08:57:14;;;;;;;13.93;9.43;;;20.50;93.20;;;;;;5079511;28;20231;-77
2021/06/29 09:00:12;;;;;;;13.23;8.87;;;20.50;93.10;;;;;;5077558;28;20171;-82
2021/06/29 09:02:40;;;;;;;14.63;9.10;;;20.70;92.80;;;;;;5079102;28;20165;-77
2021/06/29 09:05:20;;;;;;;13.23;8.23;;;20.90;92.00;;;;;;5081829;28;20166;-79
2021/06/29 09:08:18;;;;;;;15.60;8.53;;;21.10;86.70;;;;;;5079893;28;20232;-79
2021/06/29 09:11:08;;;;;;;10.60;8.50;;;20.80;87.80;;;;;;5062035;28;20179;-77
2021/06/29 09:13:36;;;;;;;14.20;8.33;;;20.70;90.00;;;;;;5066715;28;20217;-77
2021/06/29 09:16:02;;;;;;;10.83;8.23;;;20.90;88.90;;;;;;5045220;28;20189;-81
2021/06/29 09:18:37;;;;;;;10.43;8.70;;;21.20;86.50;;;;;;5058016;28;20271;-78
2021/06/29 09:21:12;;;;;;;10.43;8.57;;;21.40;82.00;;;;;;5061105;28;20184;-77
2021/06/29 09:23:49;;;;;;;10.63;8.40;;;21.60;79.20;;;;;;5084466;28;20202;-77
2021/06/29 09:26:23;;;;;;;11.30;9.13;;;21.50;77.20;;;;;;5094923;28;20170;-76
2021/06/29 09:29:13;;;;;;;14.00;11.50;;;21.30;82.20;;;;;;5087681;28;20214;-79
2021/06/29 09:31:44;;;;;;;15.00;11.10;;;21.10;82.20;;;;;;5049079;28;20205;-78
2021/06/29 09:34:12;;;;;;;14.83;10.83;;;21.00;82.60;;;;;;5064831;28;20152;-77
2021/06/29 09:36:42;;;;;;;12.53;10.43;;;21.10;83.30;;;;;;5061987;28;20177;-77
2021/06/29 09:39:17;;;;;;;15.13;10.23;;;21.20;82.00;;;;;;5048774;28;20181;-80
2021/06/29 09:41:47;;;;;;;10.67;9.47;;;21.20;76.70;;;;;;5041257;28;20177;-79
2021/06/29 09:44:19;;;;;;;13.80;11.23;;;21.30;76.30;;;;;;5045905;28;20181;-77
2021/06/29 09:46:45;;;;;;;11.97;10.53;;;21.50;76.10;;;;;;5049109;28;20186;-76
2021/06/29 09:49:14;;;;;;;13.73;10.87;;;21.60;79.40;;;;;;5069623;28;20214;-79
2021/06/29 09:51:49;;;;;;;11.00;9.27;;;21.70;78.30;;;;;;5085424;28;20179;-77
2021/06/29 09:54:21;;;;;;;12.87;10.80;;;21.80;72.70;;;;;;5085396;28;20257;-76
2021/06/29 09:56:54;;;;;;;13.30;9.87;;;21.90;67.70;;;;;;5078664;28;20236;-81
2021/06/29 09:59:26;;;;;;;16.90;12.53;;;22.00;69.40;;;;;;5055637;28;20190;-81
2021/06/29 10:02:11;;;;;;;13.60;11.03;;;22.10;71.30;;;;;;5064407;28;20168;-80
2021/06/29 10:04:38;;;;;;;12.83;10.27;;;22.10;70.10;;;;;;5083018;28;20187;-79
2021/06/29 10:07:17;;;;;;;12.20;10.67;;;22.10;71.80;;;;;;5060078;28;20323;-81
2021/06/29 10:09:43;;;;;;;15.83;10.60;;;22.10;71.00;;;;;;5061670;28;20299;-85
2021/06/29 10:12:09;;;;;;;13.73;10.23;;;22.30;71.00;;;;;;5063688;28;20177;-82
2021/06/29 10:14:37;;;;;;;12.60;10.43;;;22.60;67.90;;;;;;5064801;28;20234;-78
2021/06/29 10:17:09;;;;;;;13.03;11.37;;;22.70;59.10;;;;;;5067770;28;20168;-84
2021/06/29 10:20:10;;;;;;;14.47;11.50;;;22.60;59.10;;;;;;5086050;28;20210;-78
2021/06/29 10:22:35;;;;;;;11.43;9.93;;;22.70;55.70;;;;;;5073256;28;20212;-85
2021/06/29 10:25:04;;;;;;;11.07;9.90;;;22.80;56.90;;;;;;5078859;28;20188;-81
2021/06/29 10:27:34;;;;;;;17.23;10.43;;;23.00;55.00;;;;;;5091727;28;20220;-81
2021/06/29 10:30:00;;;;;;;13.47;10.70;;;23.10;52.20;;;;;;5089629;28;20162;-82
2021/06/29 10:32:29;;;;;;;12.73;10.57;;;23.20;51.00;;;;;;5073384;28;20716;-84
2021/06/29 10:34:56;;;;;;;13.43;10.63;;;23.30;46.30;;;;;;5065263;28;20588;-78
2021/06/29 10:37:23;;;;;;;12.87;11.37;;;23.10;47.10;;;;;;5064807;28;20165;-83
2021/06/29 10:39:49;;;;;;;14.50;11.33;;;23.00;52.80;;;;;;5064391;28;20166;-81
2021/06/29 10:42:18;;;;;;;13.33;11.37;;;22.70;55.60;;;;;;5055133;28;20186;-79
2021/06/29 10:44:46;;;;;;;15.83;11.70;;;22.90;56.00;;;;;;5054108;28;20170;-84
2021/06/29 10:47:29;;;;;;;12.17;10.77;;;23.00;56.30;;;;;;5064313;28;20160;-77
2021/06/29 10:49:57;;;;;;;12.97;10.90;;;22.80;58.00;;;;;;5070390;28;20232;-80
2021/06/29 10:52:37;;;;;;;14.77;11.73;;;22.60;60.10;;;;;;5055312;28;20198;-81
2021/06/29 10:55:26;;;;;;;15.90;11.37;;;22.60;61.30;;;;;;5069421;28;20246;-78
2021/06/29 10:57:54;;;;;;;15.00;10.33;;;22.80;58.20;;;;;;5061131;28;20192;-77
2021/06/29 11:00:25;;;;;;;12.23;10.90;;;22.90;56.50;;;;;;5055828;28;20176;-83
2021/06/29 11:02:57;;;;;;;18.73;12.50;;;22.90;55.10;;;;;;5054846;28;20176;-84
2021/06/29 11:05:29;;;;;;;13.83;11.07;;;22.80;58.60;;;;;;5057455;28;20625;-82
2021/06/29 11:08:07;;;;;;;16.13;11.00;;;22.70;59.00;;;;;;5045605;28;20543;-79
2021/06/29 11:10:36;;;;;;;15.40;11.53;;;22.70;58.80;;;;;;5047754;28;20624;-80
2021/06/29 11:13:05;;;;;;;11.63;9.43;;;22.60;60.60;;;;;;5064119;28;20177;-81
2021/06/29 11:15:49;;;;;;;11.83;8.57;;;22.60;53.30;;;;;;5061432;28;20178;-78
2021/06/29 11:18:17;;;;;;;13.77;10.07;;;22.70;52.30;;;;;;5044150;28;20700;-82
2021/06/29 11:20:53;;;;;;;10.97;9.80;;;22.80;46.20;;;;;;5040119;28;20656;-82
2021/06/29 11:23:26;;;;;;;13.37;9.63;;;22.90;39.00;;;;;;5039857;28;20688;-76
2021/06/29 11:26:02;;;;;;;12.97;10.00;;;23.10;36.00;;;;;;5043921;28;20174;-77
2021/06/29 11:28:33;;;;;;;15.37;10.80;;;23.20;31.80;;;;;;5038076;28;20293;-84
2021/06/29 11:31:38;;;;;;;13.40;10.43;;;23.40;28.60;;;;;;5042818;28;20181;-83
2021/06/29 11:34:07;;;;;;;14.30;9.93;;;23.30;28.40;;;;;;5047540;28;20178;-82
2021/06/29 11:36:37;;;;;;;13.80;8.73;;;23.40;26.00;;;;;;5043425;28;20161;-83
2021/06/29 11:39:15;;;;;;;11.80;7.57;;;23.50;19.90;;;;;;5041325;28;20170;-78
2021/06/29 11:41:54;;;;;;;11.03;7.87;;;23.80;15.30;;;;;;5038973;28;20255;-85
2021/06/29 11:44:20;;;;;;;13.27;9.03;;;24.00;8.70;;;;;;5040005;28;20171;-84
2021/06/29 11:46:59;;;;;;;13.40;9.40;;;24.00;5.60;;;;;;5039779;28;20581;-85
2021/06/29 11:49:58;;;;;;;11.47;7.70;;;24.00;8.50;;;;;;5043003;28;20203;-81
2021/06/29 11:52:43;;;;;;;11.07;7.87;;;24.00;10.20;;;;;;5040400;28;20254;-80
2021/06/29 11:55:22;;;;;;;8.80;7.73;;;24.30;5.00;;;;;;5040774;28;20176;-81
2021/06/29 11:57:53;;;;;;;11.37;8.03;;;24.60;1.00;;;;;;5038122;28;20161;-83
2021/06/29 12:00:38;;;;;;;13.03;7.80;;;24.70;1.00;;;;;;5042098;28;20157;-80
2021/06/29 12:03:13;;;;;;;12.93;7.70;;;25.00;1.00;;;;;;5043361;28;20178;-77
2021/06/29 12:05:39;;;;;;;10.70;7.90;;;25.10;1.00;;;;;;5045754;28;20160;-84
2021/06/29 12:08:12;;;;;;;11.97;7.63;;;25.20;1.00;;;;;;5047616;28;20193;-75
2021/06/29 12:10:43;;;;;;;13.00;7.83;;;25.00;1.00;;;;;;5051794;28;20181;-77
2021/06/29 12:13:18;;;;;;;10.77;7.67;;;24.80;1.00;;;;;;5048179;28;20227;-85
2021/06/29 12:15:47;;;;;;;11.03;7.57;;;24.20;1.00;;;;;;5041827;28;20171;-80
2021/06/29 12:18:14;;;;;;;11.57;8.27;;;24.00;1.00;;;;;;5046121;28;20181;-78
2021/06/29 12:21:01;;;;;;;9.03;7.67;;;24.00;1.00;;;;;;5040713;28;20636;-85
2021/06/29 12:23:29;;;;;;;9.87;8.30;;;24.00;1.00;;;;;;5040188;28;20680;-80
2021/06/29 12:26:15;;;;;;;13.67;9.00;;;23.70;1.00;;;;;;5041045;28;20596;-82
2021/06/29 12:28:41;;;;;;;15.97;11.40;;;23.60;7.50;;;;;;5040972;28;20204;-85
2021/06/29 12:31:16;;;;;;;15.13;10.80;;;23.50;13.70;;;;;;5039768;28;20176;-81
2021/06/29 12:33:45;;;;;;;13.87;11.10;;;23.40;20.60;;;;;;5040787;28;20169;-82
2021/06/29 12:36:22;;;;;;;17.43;14.47;;;23.20;24.30;;;;;;5039596;28;20223;-84
2021/06/29 12:38:51;;;;;;;19.43;15.63;;;23.10;30.60;;;;;;5038002;28;20537;-78
2021/06/29 12:41:27;;;;;;;15.33;12.77;;;22.90;33.00;;;;;;5044385;28;20188;-77
2021/06/29 12:43:54;;;;;;;15.03;12.63;;;22.80;38.70;;;;;;5050131;28;20193;-77
2021/06/29 12:46:26;;;;;;;16.73;13.37;;;22.80;42.20;;;;;;5050884;28;20204;-77
2021/06/29 12:49:04;;;;;;;17.33;14.17;;;22.60;54.40;;;;;;5046332;28;20215;-83
2021/06/29 12:51:33;;;;;;;17.30;13.97;;;22.60;56.70;;;;;;5040180;28;20199;-78